Bemidji, MN

10:43 PM CDT on May 25, 2017 (GMT -0500)
Bemidji-Beltrami County

Weather History for KBJI - December, 2013

Change the Weather History Date:

Wednesday, December 11, 2013

  Actual Average Record
Temperature  
Mean Temperature -12 °F -  
Max Temperature -4 °F 21 °F 42 °F (1998)
Min Temperature -21 °F 1 °F -27 °F (1958)
Degree Days  
Heating Degree Days 78    
Moisture  
Dew Point -18 °F    
Average Humidity 73    
Maximum Humidity 80    
Minimum Humidity 61    
Precipitation  
Precipitation 0.00 in - - ()
Sea Level Pressure  
Sea Level Pressure 30.27 in    
Wind  
Wind Speed 8 mph (WSW)    
Max Wind Speed 13 mph    
Max Gust Speed -    
Visibility 10 miles    
Events Snow    
Averages and records for this station are not official NWS values.
T = Trace of Precipitation, MM = Missing Value Source: NWS Daily Summary

Daily Weather History Graph

Daily Weather History Graph

Search for Another Location

Airport or City:

Trip Planner

Search our weather history database for the weather conditions in past years. The results will help you decide how hot, cold, wet, or windy it might be!

Date:

Astronomy

Dec. 11, 2013 Rise Set
Actual Time 7:57 AM CST 4:28 PM CST
Civil Twilight 7:21 AM CST 5:04 PM CST
Nautical Twilight 6:42 AM CST 5:43 PM CST
Astronomical Twilight 6:05 AM CST 6:20 PM CST
Moon 1:20 PM CST (12/11) 2:00 AM CST (12/11)
Length of Visible Light 9h 42m
Length of Day
8h 30m
Waxing Gibbous, 72% of the Moon is Illuminated
Dec 11
Waxing Gibbous
Dec 17
Full
Dec 25
Last Quarter
Jan 1
New
Jan 7
First Quarter

Hourly Weather History & Observations

Time (CST) Temp. Windchill Dew Point Humidity Pressure Visibility Wind Dir Wind Speed Gust Speed Precip Events Conditions
12:11 AM -15.3 °F -34.1 °F -20.2 °F 79% 30.22 in 10.0 mi WNW 9.2 mph - N/A   Clear
12:31 AM -15.7 °F -33.3 °F -20.4 °F 79% 30.23 in 10.0 mi West 8.1 mph - N/A   Clear
12:51 AM -17.1 °F -37.5 °F -22.2 °F 78% 30.24 in 10.0 mi WNW 10.4 mph - N/A   Clear
1:11 AM -16.8 °F -35.9 °F -22.0 °F 77% 30.25 in 10.0 mi West 9.2 mph - N/A   Clear
1:31 AM -18.0 °F -38.6 °F -22.9 °F 78% 30.26 in 10.0 mi West 10.4 mph - N/A   Clear
1:51 AM -16.8 °F -39.1 °F -21.6 °F 79% 30.26 in 10.0 mi West 12.7 mph - N/A   Clear
2:11 AM -17.7 °F -37.0 °F -22.7 °F 78% 30.27 in 10.0 mi WNW 9.2 mph - N/A   Clear
2:31 AM -18.2 °F -37.7 °F -23.1 °F 78% 30.27 in 10.0 mi WNW 9.2 mph - N/A   Clear
2:51 AM -18.4 °F -40.2 °F -23.3 °F 78% 30.28 in 10.0 mi WNW 11.5 mph - N/A   Clear
3:11 AM -18.4 °F -39.1 °F -23.1 °F 79% 30.29 in 10.0 mi West 10.4 mph - N/A   Clear
3:31 AM -17.7 °F -38.2 °F -22.4 °F 79% 30.30 in 10.0 mi West 10.4 mph - N/A   Clear
3:51 AM -17.9 °F -37.2 °F -22.7 °F 78% 30.29 in 10.0 mi West 9.2 mph - N/A   Clear
4:11 AM -18.2 °F -39.9 °F -23.3 °F 78% 30.30 in 10.0 mi West 11.5 mph - N/A   Clear
4:31 AM -19.3 °F -39.0 °F -24.2 °F 78% 30.30 in 10.0 mi West 9.2 mph - N/A   Clear
4:51 AM -19.8 °F -36.8 °F -24.7 °F 78% 30.30 in 10.0 mi West 6.9 mph - N/A   Clear
5:11 AM -19.8 °F -38.3 °F -24.5 °F 79% 30.31 in 10.0 mi West 8.1 mph - N/A   Clear
5:31 AM -19.3 °F -37.7 °F -23.8 °F 80% 30.32 in 10.0 mi West 8.1 mph - N/A   Clear
5:51 AM -19.3 °F -34.5 °F -24.0 °F 79% 30.32 in 10.0 mi West 5.8 mph - N/A   Clear
6:11 AM -20.4 °F -37.5 °F -25.6 °F 77% 30.33 in 10.0 mi West 6.9 mph - N/A   Clear
6:31 AM -20.0 °F -33.3 °F -24.7 °F 79% 30.33 in 10.0 mi West 4.6 mph - N/A   Clear
6:51 AM -21.5 °F -32.4 °F -26.1 °F 79% 30.33 in 10.0 mi WSW 3.5 mph - N/A   Clear
8:11 AM -21.1 °F -34.5 °F -26.5 °F 76% 30.35 in 10.0 mi SW 4.6 mph - N/A   Clear
8:31 AM -20.6 °F -33.9 °F -25.6 °F 78% 30.35 in 10.0 mi SW 4.6 mph - N/A   Clear
8:51 AM -19.5 °F -34.7 °F -24.7 °F 77% 30.36 in 10.0 mi SW 5.8 mph - N/A   Clear
9:11 AM -19.3 °F -34.5 °F -24.3 °F 78% 30.37 in 10.0 mi SW 5.8 mph - N/A   Clear
9:31 AM -18.4 °F -33.4 °F -23.1 °F 79% 30.37 in 10.0 mi WSW 5.8 mph - N/A   Clear
9:50 AM -17.3 °F -32.1 °F -22.2 °F 79% 30.37 in 10.0 mi West 5.8 mph - N/A   Clear
10:11 AM -15.5 °F -31.6 °F -20.6 °F 78% 30.37 in 10.0 mi West 6.9 mph - N/A   Clear
10:31 AM -13.9 °F -31.1 °F -19.3 °F 77% 30.37 in 10.0 mi WSW 8.1 mph - N/A   Clear
10:51 AM -12.3 °F -31.5 °F -18.2 °F 75% 30.36 in 10.0 mi WSW 10.4 mph - N/A   Clear
11:11 AM -11.4 °F -29.3 °F -17.9 °F 73% 30.35 in 10.0 mi West 9.2 mph - N/A   Clear
11:31 AM -10.3 °F -27.9 °F -17.1 °F 72% 30.34 in 10.0 mi West 9.2 mph - N/A   Clear
11:50 AM -9.4 °F -28.9 °F -16.8 °F 70% 30.34 in 10.0 mi WSW 11.5 mph - N/A   Clear
12:11 PM -8.5 °F -27.8 °F -16.4 °F 68% 30.33 in 10.0 mi West 11.5 mph - N/A   Clear
12:31 PM -8.1 °F -27.3 °F -16.6 °F 67% 30.32 in 10.0 mi West 11.5 mph - N/A   Clear
12:51 PM -7.4 °F -24.4 °F -15.9 °F 67% 30.32 in 10.0 mi WSW 9.2 mph - N/A   Clear
1:11 PM -7.1 °F -25.9 °F -15.9 °F 66% 30.31 in 10.0 mi West 11.5 mph - N/A   Clear
1:31 PM -6.3 °F -23.1 °F -15.3 °F 65% 30.31 in 10.0 mi West 9.2 mph - N/A   Clear
1:50 PM -5.8 °F -18.4 °F -14.8 °F 65% 30.31 in 10.0 mi SW 5.8 mph - N/A   Clear
2:11 PM -5.3 °F -20.6 °F -14.8 °F 63% 30.30 in 10.0 mi SW 8.1 mph - N/A   Clear
2:31 PM -4.7 °F -19.9 °F -14.8 °F 62% 30.29 in 10.0 mi SW 8.1 mph - N/A   Clear
2:51 PM -4.4 °F -18.2 °F -14.8 °F 61% 30.29 in 10.0 mi WSW 6.9 mph - N/A   Clear
3:11 PM -4.0 °F -16.3 °F -14.3 °F 61% 30.29 in 10.0 mi WSW 5.8 mph - N/A   Clear
3:31 PM -4.4 °F -15.0 °F -14.8 °F 61% 30.28 in 10.0 mi WSW 4.6 mph - N/A   Clear
3:50 PM -5.3 °F -13.8 °F -14.6 °F 64% 30.27 in 10.0 mi SW 3.5 mph - N/A   Clear
4:11 PM -6.2 °F -17.1 °F -15.0 °F 66% 30.27 in 10.0 mi WSW 4.6 mph - N/A   Clear
4:31 PM -6.3 °F -17.3 °F -14.8 °F 67% 30.26 in 10.0 mi SW 4.6 mph - N/A   Scattered Clouds
4:51 PM -6.9 °F -19.7 °F -15.0 °F 68% 30.26 in 10.0 mi SSW 5.8 mph - N/A   Mostly Cloudy
5:11 PM -6.5 °F -19.3 °F -15.2 °F 66% 30.24 in 10.0 mi SSW 5.8 mph - N/A   Overcast
5:31 PM -6.7 °F -19.5 °F -14.8 °F 68% 30.22 in 10.0 mi SSW 5.8 mph - N/A   Overcast
5:50 PM -6.5 °F -20.8 °F -14.8 °F 67% 30.22 in 10.0 mi SSW 6.9 mph - N/A   Overcast
6:11 PM -6.3 °F -20.6 °F -14.8 °F 67% 30.22 in 10.0 mi SW 6.9 mph - N/A   Overcast
6:31 PM -6.7 °F -22.3 °F -14.8 °F 68% 30.22 in 10.0 mi SSW 8.1 mph - N/A   Overcast
6:51 PM -6.7 °F -21.0 °F -15.2 °F 67% 30.21 in 10.0 mi SSW 6.9 mph - N/A   Overcast
7:11 PM -6.7 °F -22.3 °F -15.3 °F 66% 30.21 in 10.0 mi SW 8.1 mph - N/A   Overcast
7:31 PM -6.9 °F -22.5 °F -14.8 °F 68% 30.21 in 10.0 mi SW 8.1 mph - N/A   Overcast
7:50 PM -7.1 °F -21.4 °F -14.8 °F 69% 30.19 in 10.0 mi SSW 6.9 mph - N/A   Overcast
8:11 PM -7.6 °F -22.1 °F -14.8 °F 71% 30.19 in 10.0 mi SSW 6.9 mph - N/A   Mostly Cloudy
8:31 PM -7.6 °F -22.1 °F -14.8 °F 71% 30.17 in 10.0 mi SSW 6.9 mph - N/A   Overcast
8:51 PM -7.2 °F -21.7 °F -13.9 °F 73% 30.17 in 10.0 mi South 6.9 mph - N/A Snow Light Snow
9:11 PM -7.1 °F -15.9 °F -13.2 °F 75% 30.15 in 10.0 mi South 3.5 mph - N/A Snow Light Snow
9:31 PM -6.9 °F -15.7 °F -13.0 °F 75% 30.15 in 10.0 mi SSW 3.5 mph - N/A Snow Light Snow
9:50 PM -6.7 °F - -12.3 °F 77% 30.14 in 7.0 mi Calm Calm - N/A Snow Light Snow
10:11 PM -6.0 °F -18.6 °F -11.6 °F 77% 30.14 in 10.0 mi SSW 5.8 mph - N/A   Overcast
10:31 PM -5.8 °F -18.4 °F -11.2 °F 77% 30.14 in 10.0 mi SSW 5.8 mph - N/A Snow Light Snow
10:51 PM -5.6 °F -18.2 °F -11.2 °F 77% 30.14 in 10.0 mi South 5.8 mph - N/A Snow Light Snow
11:11 PM -5.3 °F -16.0 °F -10.5 °F 78% 30.14 in 10.0 mi SSW 4.6 mph - N/A Snow Light Snow
11:31 PM -5.3 °F -13.8 °F -10.5 °F 78% 30.13 in 10.0 mi SSW 3.5 mph - N/A Snow Light Snow
11:50 PM -4.9 °F -17.4 °F -10.3 °F 78% 30.14 in 10.0 mi SSW 5.8 mph - N/A   Overcast